Terminal Aerodrome Forecast
Issued by NWS

Home | Current Version | Previous Version | Text Only | Print | Product List | Glossary On
Versions: 1 2 3 4 5 6 7 8 9 10 11 12 13 14 15 16 17 18 19
000
FTUS41 KBTV 161307 AAA
TAFMPV
TAF AMD
KMPV 161307Z 1613/1712 33008KT P6SM SCT015 OVC050
     FM161600 35007KT P6SM SCT050
     FM170200 VRB03KT P6SM SKC=

USA.gov is the U.S. government's official web portal to all federal, state and local government web resources and services.